Time;durP1;ratioP1;P1;durP2;ratioP2;P2;SDS_P1;SDS_P2;PMS_P1;PMS_P2;Temp;Humidity;BMP_temperature;BMP_pressure;BME280_temperature;BME280_humidity;BME280_pressure;Samples;Min_cycle;Max_cycle;Signal;HPM_P1;HPM_P2
2022/02/20 00:00:49;;;;;;;6.23;1.50;;;;;;;3.53;64.32;96088.34;5031205;28;20552;-79
2022/02/20 00:03:15;;;;;;;4.50;1.50;;;;;;;3.48;65.41;96089.66;5035204;28;20415;-80
2022/02/20 00:05:41;;;;;;;3.97;1.20;;;;;;;3.47;65.35;96085.41;5026867;28;20029;-79
2022/02/20 00:08:06;;;;;;;7.97;1.00;;;;;;;3.43;65.54;96082.22;5035262;28;20036;-79
2022/02/20 00:10:33;;;;;;;7.20;1.03;;;;;;;3.46;65.89;96076.78;5037170;28;20029;-79
2022/02/20 00:12:59;;;;;;;5.23;1.47;;;;;;;3.49;65.21;96062.72;5028364;28;20041;-80
2022/02/20 00:15:25;;;;;;;11.80;2.50;;;;;;;3.48;64.71;96082.66;5071204;28;20033;-79
2022/02/20 00:17:53;;;;;;;3.13;1.07;;;;;;;3.44;65.51;96089.06;5034873;28;20037;-81
2022/02/20 00:20:19;;;;;;;8.77;1.60;;;;;;;3.40;66.48;96087.66;5035269;28;20469;-79
2022/02/20 00:22:45;;;;;;;5.27;0.90;;;;;;;3.36;67.27;96101.84;5041744;28;20055;-80
2022/02/20 00:25:11;;;;;;;4.03;1.00;;;;;;;3.28;68.63;96092.00;5045924;28;20027;-79
2022/02/20 00:27:37;;;;;;;4.60;1.30;;;;;;;3.21;69.94;96095.19;5057027;28;20041;-79
2022/02/20 00:30:04;;;;;;;6.40;0.80;;;;;;;3.13;72.40;96094.97;5022148;28;20050;-79
2022/02/20 00:32:29;;;;;;;6.13;1.20;;;;;;;3.09;72.91;96093.56;5033662;28;20040;-79
2022/02/20 00:34:56;;;;;;;3.23;1.07;;;;;;;3.05;74.02;96090.34;5032510;28;20648;-79
2022/02/20 00:37:21;;;;;;;6.93;1.47;;;;;;;2.94;76.27;96091.16;5028896;28;20025;-80
2022/02/20 00:39:47;;;;;;;9.10;1.73;;;;;;;2.87;77.71;96099.53;5036001;28;20029;-79
2022/02/20 00:42:13;;;;;;;4.10;1.00;;;;;;;2.77;79.72;96081.22;5032019;28;20550;-78
2022/02/20 00:44:40;;;;;;;6.57;1.40;;;;;;;2.70;80.88;96078.25;5020985;28;20081;-80
2022/02/20 00:47:06;;;;;;;7.20;1.67;;;;;;;2.78;80.63;96082.88;5050630;28;21046;-79
2022/02/20 00:49:32;;;;;;;5.60;0.97;;;;;;;2.74;82.67;96089.22;5045051;28;20521;-80
2022/02/20 00:51:57;;;;;;;6.30;1.10;;;;;;;2.72;81.31;96086.75;5027440;28;20024;-78
2022/02/20 00:54:23;;;;;;;4.40;1.00;;;;;;;2.76;80.40;96077.78;5024138;28;20064;-79
2022/02/20 00:56:49;;;;;;;10.17;1.57;;;;;;;2.72;82.06;96089.38;5048644;28;20025;-80
2022/02/20 00:59:15;;;;;;;7.80;1.10;;;;;;;2.69;82.02;96097.38;5028743;28;20033;-78
2022/02/20 01:01:42;;;;;;;6.57;1.37;;;;;;;2.66;84.83;96097.59;5033554;28;20044;-80
2022/02/20 01:04:09;;;;;;;6.97;2.00;;;;;;;2.53;84.91;96100.28;5021253;28;20447;-79
2022/02/20 01:06:35;;;;;;;7.80;1.37;;;;;;;2.47;87.21;96100.72;5026196;28;20841;-79
2022/02/20 01:09:05;;;;;;;7.17;1.83;;;;;;;2.41;90.61;96111.53;5024801;28;20048;-78
2022/02/20 01:11:31;;;;;;;6.93;0.93;;;;;;;2.35;90.03;96104.22;5024601;28;20456;-81
2022/02/20 01:13:56;;;;;;;9.43;1.07;;;;;;;2.31;92.63;96110.56;5023090;28;20458;-80
2022/02/20 01:16:22;;;;;;;7.97;1.40;;;;;;;2.36;91.94;96109.28;5048857;28;20020;-80
2022/02/20 01:18:48;;;;;;;10.23;1.77;;;;;;;2.43;91.46;96111.44;5050598;28;20052;-80
2022/02/20 01:21:14;;;;;;;8.60;1.53;;;;;;;2.42;91.82;96092.47;5057399;28;20447;-80
2022/02/20 01:23:41;;;;;;;6.63;1.20;;;;;;;2.41;91.99;96101.16;5019462;28;20138;-80
2022/02/20 01:26:07;;;;;;;7.87;1.07;;;;;;;2.48;90.23;96092.00;5063011;28;20053;-81
2022/02/20 01:28:33;;;;;;;5.90;1.20;;;;;;;2.54;90.24;96095.91;5041107;28;20904;-79
2022/02/20 01:30:58;;;;;;;4.50;1.50;;;;;;;2.60;89.14;96098.06;5042886;28;20447;-79
2022/02/20 01:33:24;;;;;;;10.20;1.40;;;;;;;2.67;88.78;96098.44;5034931;28;20381;-80
2022/02/20 01:35:50;;;;;;;4.73;1.57;;;;;;;2.67;88.65;96098.44;5033348;28;20025;-80
2022/02/20 01:38:15;;;;;;;6.10;1.93;;;;;;;2.60;88.47;96101.47;5042236;28;20071;-80
2022/02/20 01:40:44;;;;;;;10.27;1.63;;;;;;;2.72;88.12;96091.13;5037186;28;20018;-80
2022/02/20 01:43:12;;;;;;;7.67;1.97;;;;;;;2.76;88.12;96089.97;5075926;28;20453;-79
2022/02/20 01:45:39;;;;;;;4.80;1.17;;;;;;;2.93;87.47;96088.69;5030910;28;20482;-79
2022/02/20 01:48:06;;;;;;;6.27;1.50;;;;;;;2.99;87.46;96078.66;5036370;28;20833;-79
2022/02/20 01:50:33;;;;;;;6.90;1.97;;;;;;;2.96;87.60;96091.06;5037379;28;20482;-80
2022/02/20 01:52:59;;;;;;;5.07;1.20;;;;;;;3.02;88.20;96078.44;5044398;28;20455;-80
2022/02/20 01:55:25;;;;;;;5.90;1.13;;;;;;;3.02;88.51;96090.59;5037675;28;20024;-79
2022/02/20 01:58:10;;;;;;;5.13;0.80;;;;;;;3.06;89.04;96081.63;5029167;28;20399;-80
2022/02/20 02:00:54;;;;;;;10.37;2.00;;;;;;;3.01;90.17;96071.56;5025799;28;20487;-80
2022/02/20 02:03:46;;;;;;;4.37;0.90;;;;;;;3.15;87.66;96080.06;5017546;28;20516;-80
2022/02/20 02:06:24;;;;;;;8.73;0.97;;;;;;;3.11;89.12;96083.84;5030334;28;20476;-81
2022/02/20 02:08:53;;;;;;;10.43;2.10;;;;;;;3.09;89.25;96093.56;5023233;28;20476;-80
2022/02/20 02:11:37;;;;;;;6.97;1.07;;;;;;;3.10;90.07;96082.22;5048402;28;20514;-80
2022/02/20 02:14:21;;;;;;;7.63;1.02;;;;;;;3.10;90.79;96079.63;5004502;28;20461;-80
2022/02/20 02:17:07;;;;;;;8.17;1.80;;;;;;;3.09;92.96;96080.56;5031616;28;20062;-80
2022/02/20 02:19:39;;;;;;;3.33;0.70;;;;;;;3.06;92.59;96090.25;5019950;28;20468;-79
2022/02/20 02:22:22;;;;;;;7.00;1.00;;;;;;;3.11;91.93;96076.88;5033966;28;20047;-79
2022/02/20 02:25:14;;;;;;;4.07;1.00;;;;;;;3.11;92.22;96087.28;5043572;28;20045;-79
2022/02/20 02:27:57;;;;;;;7.73;0.87;;;;;;;3.09;93.59;96090.97;5027522;28;20467;-79
2022/02/20 02:30:40;;;;;;;5.13;0.80;;;;;;;3.12;92.87;96077.72;5066683;28;20460;-80
2022/02/20 02:33:09;;;;;;;2.55;0.70;;;;;;;3.09;93.58;96065.81;5020604;28;20528;-79
2022/02/20 02:35:36;;;;;;;3.83;0.87;;;;;;;3.12;93.87;96083.75;5024905;28;20876;-80
2022/02/20 02:38:04;;;;;;;3.80;0.80;;;;;;;3.11;94.97;96081.25;5036576;28;20048;-80
2022/02/20 02:40:31;;;;;;;5.73;0.83;;;;;;;3.06;95.72;96077.25;5022726;28;20550;-80
2022/02/20 02:42:57;;;;;;;4.10;0.97;;;;;;;3.04;97.41;96055.75;5035788;28;20463;-81
2022/02/20 02:45:30;;;;;;;2.53;0.83;;;;;;;2.96;98.46;96057.28;5052673;28;20543;-79
2022/02/20 02:48:01;;;;;;;6.70;1.20;;;;;;;2.96;99.29;96078.91;5031929;28;20040;-79
2022/02/20 02:50:27;;;;;;;4.33;0.80;;;;;;;2.96;98.97;96070.28;5019227;28;20468;-80
2022/02/20 02:52:59;;;;;;;5.30;0.70;;;;;;;2.96;98.92;96080.66;5037020;28;20040;-78
2022/02/20 02:55:25;;;;;;;5.20;1.10;;;;;;;2.98;99.57;96077.00;5035259;28;20467;-79
2022/02/20 02:57:52;;;;;;;4.70;1.13;;;;;;;2.94;100.00;96065.19;5021914;28;20487;-79
2022/02/20 03:00:18;;;;;;;6.03;0.90;;;;;;;3.00;99.43;96059.53;5050582;28;20451;-79
2022/02/20 03:02:43;;;;;;;5.70;1.23;;;;;;;2.92;100.00;96072.28;5030361;28;21164;-78
2022/02/20 03:05:10;;;;;;;4.97;0.90;;;;;;;2.95;99.84;96071.19;5037926;28;20028;-79
2022/02/20 03:07:38;;;;;;;8.30;1.63;;;;;;;2.99;99.93;96065.69;5045693;28;20489;-79
2022/02/20 03:10:04;;;;;;;6.13;1.50;;;;;;;2.96;100.00;96067.69;5040283;28;20581;-78
2022/02/20 03:12:32;;;;;;;7.80;1.20;;;;;;;2.94;100.00;96083.38;5035869;28;20474;-80
2022/02/20 03:14:58;;;;;;;3.07;0.80;;;;;;;2.92;100.00;96066.22;5018285;28;20468;-81
2022/02/20 03:17:25;;;;;;;9.97;1.00;;;;;;;2.92;100.00;96080.06;5021296;28;20036;-80
2022/02/20 03:19:52;;;;;;;7.40;1.93;;;;;;;2.99;100.00;96063.06;5040175;28;20035;-79
2022/02/20 03:22:18;;;;;;;6.23;0.90;;;;;;;3.00;100.00;96085.50;5019654;28;20559;-78
2022/02/20 03:24:44;;;;;;;7.20;1.47;;;;;;;3.02;100.00;96068.03;5033251;28;20471;-80
2022/02/20 03:27:14;;;;;;;9.63;1.20;;;;;;;3.00;100.00;96101.09;5054600;28;20502;-80
2022/02/20 03:29:44;;;;;;;5.70;0.90;;;;;;;3.01;100.00;96089.75;5037336;28;20452;-79
2022/02/20 03:32:11;;;;;;;3.83;1.00;;;;;;;3.05;100.00;96104.19;5040698;28;20474;-79
2022/02/20 03:34:38;;;;;;;5.50;0.93;;;;;;;3.00;100.00;96085.50;5029998;28;20510;-79
2022/02/20 03:37:04;;;;;;;5.77;0.80;;;;;;;3.00;100.00;96106.28;5034585;28;20471;-78
2022/02/20 03:39:35;;;;;;;3.53;0.90;;;;;;;3.04;100.00;96101.69;5026788;28;20467;-79
2022/02/20 03:42:06;;;;;;;5.00;1.00;;;;;;;3.03;100.00;96108.66;5042577;28;20574;-79
2022/02/20 03:44:51;;;;;;;5.20;0.83;;;;;;;3.07;100.00;96091.88;5033462;28;20459;-79
2022/02/20 03:47:17;;;;;;;4.13;0.70;;;;;;;3.09;100.00;96093.56;5045109;28;20471;-78
2022/02/20 03:49:50;;;;;;;3.23;1.17;;;;;;;3.13;100.00;96105.38;5041080;28;20475;-78
2022/02/20 03:52:24;;;;;;;3.10;0.73;;;;;;;3.14;100.00;96107.84;5041495;28;20904;-79
2022/02/20 03:54:51;;;;;;;4.83;1.50;;;;;;;3.11;100.00;96102.88;5018178;28;20449;-79
2022/02/20 03:57:19;;;;;;;6.60;1.00;;;;;;;3.16;100.00;96103.38;5038450;28;20489;-79
2022/02/20 04:00:21;;;;;;;4.57;1.00;;;;;;;3.17;100.00;96104.19;5012845;28;20484;-79
2022/02/20 04:03:22;;;;;;;3.77;0.80;;;;;;;3.20;100.00;96107.38;5033244;28;20464;-79
2022/02/20 04:05:52;;;;;;;4.23;0.50;;;;;;;3.19;100.00;96115.31;5041718;28;20467;-78
2022/02/20 04:08:19;;;;;;;3.93;0.63;;;;;;;3.22;100.00;96115.03;5020912;28;20476;-78
2022/02/20 04:10:48;;;;;;;5.93;1.07;;;;;;;3.21;100.00;96118.59;5036606;28;20455;-79
2022/02/20 04:13:23;;;;;;;1.60;0.47;;;;;;;3.16;100.00;96121.56;5031882;28;20460;-79
2022/02/20 04:15:52;;;;;;;9.00;1.10;;;;;;;3.15;100.00;96122.47;5019189;28;20893;-79
2022/02/20 04:18:26;;;;;;;2.27;0.70;;;;;;;3.18;100.00;96124.84;5022759;28;20498;-79
2022/02/20 04:21:14;;;;;;;6.33;0.93;;;;;;;3.18;100.00;96132.63;5040820;28;20045;-79
2022/02/20 04:23:41;;;;;;;4.40;0.60;;;;;;;3.16;100.00;96126.75;5032459;28;20502;-77
2022/02/20 04:26:07;;;;;;;7.53;0.73;;;;;;;3.17;100.00;96127.56;5051590;28;20474;-77
2022/02/20 04:28:33;;;;;;;4.93;1.10;;;;;;;3.26;100.00;96137.28;5021516;28;20060;-77
2022/02/20 04:31:00;;;;;;;5.50;0.60;;;;;;;3.22;100.00;96151.41;5015678;28;20495;-76
2022/02/20 04:33:27;;;;;;;2.57;0.67;;;;;;;3.22;100.00;96156.63;5035855;28;20828;-77
2022/02/20 04:35:56;;;;;;;5.80;0.77;;;;;;;3.20;100.00;96154.16;5034682;28;20471;-78
2022/02/20 04:38:22;;;;;;;3.53;0.60;;;;;;;3.14;100.00;96156.38;5034554;28;20471;-76
2022/02/20 04:40:48;;;;;;;3.17;0.60;;;;;;;3.16;100.00;96160.53;5019623;28;20467;-77
2022/02/20 04:43:19;;;;;;;3.13;0.57;;;;;;;3.18;100.00;96166.41;5043677;28;20071;-77
2022/02/20 04:45:48;;;;;;;2.80;0.53;;;;;;;3.16;100.00;96162.31;5009638;28;21185;-77
2022/02/20 04:48:17;;;;;;;4.20;0.60;;;;;;;3.18;100.00;96169.00;5022587;28;20467;-76
2022/02/20 04:50:44;;;;;;;2.30;0.40;;;;;;;3.19;100.00;96164.66;5032738;28;20535;-79
2022/02/20 04:53:15;;;;;;;2.13;0.60;;;;;;;3.14;100.00;96171.97;5031289;28;20883;-76
2022/02/20 04:55:45;;;;;;;1.77;0.67;;;;;;;3.10;100.00;96168.78;5026052;28;20564;-78
2022/02/20 04:58:11;;;;;;;2.20;0.60;;;;;;;3.15;100.00;96174.44;5026589;28;20455;-77
2022/02/20 05:00:38;;;;;;;4.03;0.80;;;;;;;3.17;100.00;96174.34;5028336;28;20025;-76
2022/02/20 05:03:13;;;;;;;1.07;0.40;;;;;;;3.18;100.00;96181.19;5042907;28;20519;-76
2022/02/20 05:05:48;;;;;;;4.80;0.73;;;;;;;3.23;100.00;96192.06;5016464;28;20518;-78
2022/02/20 05:08:23;;;;;;;4.10;0.70;;;;;;;3.25;100.00;96184.97;5047621;28;20455;-77
2022/02/20 05:10:50;;;;;;;4.73;0.80;;;;;;;3.27;100.00;96186.53;5021988;28;20471;-77
2022/02/20 05:13:16;;;;;;;2.17;0.60;;;;;;;3.27;100.00;96185.69;5031344;28;20455;-77
2022/02/20 05:15:47;;;;;;;2.47;0.53;;;;;;;3.30;100.00;96191.50;5034299;28;20091;-76
2022/02/20 05:18:14;;;;;;;1.90;0.60;;;;;;;3.27;100.00;96183.91;5034249;28;20455;-76
2022/02/20 05:20:42;;;;;;;4.13;0.67;;;;;;;3.27;100.00;96183.09;5023228;28;20482;-79
2022/02/20 05:23:09;;;;;;;2.43;0.80;;;;;;;3.23;100.00;96194.69;5047400;28;20463;-78
2022/02/20 05:25:37;;;;;;;3.10;0.70;;;;;;;3.24;100.00;96191.94;5031065;28;20895;-78
2022/02/20 05:28:03;;;;;;;2.30;0.60;;;;;;;3.26;100.00;96194.44;5060256;28;20555;-75
2022/02/20 05:30:34;;;;;;;3.27;0.60;;;;;;;3.24;100.00;96196.31;5051130;28;20071;-77
2022/02/20 05:33:13;;;;;;;2.67;0.50;;;;;;;3.19;100.00;96188.06;5033433;28;20483;-76
2022/02/20 05:35:39;;;;;;;3.53;0.50;;;;;;;3.22;100.00;96186.06;5023689;28;20476;-77
2022/02/20 05:38:04;;;;;;;4.13;0.60;;;;;;;3.26;100.00;96184.88;5028531;28;20033;-77
2022/02/20 05:40:33;;;;;;;1.77;0.37;;;;;;;3.24;100.00;96186.75;5016649;28;20040;-78
2022/02/20 05:43:06;;;;;;;3.17;0.80;;;;;;;3.18;100.00;96191.56;5032406;28;20510;-77
2022/02/20 05:45:34;;;;;;;2.37;0.50;;;;;;;3.17;100.00;96189.94;5052395;28;20464;-79
2022/02/20 05:48:21;;;;;;;4.30;0.50;;;;;;;3.20;100.00;96198.31;5045781;28;20474;-77
2022/02/20 05:51:02;;;;;;;1.63;0.67;;;;;;;3.22;100.00;96206.84;5027317;28;20572;-75
2022/02/20 05:53:33;;;;;;;4.93;0.80;;;;;;;3.24;100.00;96198.91;5033358;28;20495;-77
2022/02/20 05:55:59;;;;;;;1.50;0.33;;;;;;;3.21;100.00;96197.38;5029049;28;20566;-77
2022/02/20 05:58:27;;;;;;;2.93;0.67;;;;;;;3.22;100.00;96187.81;5033994;28;20451;-76
2022/02/20 06:00:59;;;;;;;1.07;0.27;;;;;;;3.24;100.00;96201.53;5037671;28;21042;-78
2022/02/20 06:03:26;;;;;;;2.83;0.47;;;;;;;3.27;100.00;96196.09;5025920;28;20478;-78
2022/02/20 06:06:15;;;;;;;2.83;0.63;;;;;;;3.21;100.00;96212.13;5046501;28;20475;-78
2022/02/20 06:08:56;;;;;;;2.73;0.40;;;;;;;3.21;100.00;96209.53;5042305;28;20534;-77
2022/02/20 06:11:36;;;;;;;2.57;0.40;;;;;;;3.24;100.00;96223.13;5029191;28;20559;-77
2022/02/20 06:14:22;;;;;;;2.57;0.40;;;;;;;3.25;100.00;96219.63;5031152;28;20526;-77
2022/02/20 06:17:06;;;;;;;1.07;0.40;;;;;;;3.27;100.00;96222.09;5045303;28;20487;-77
2022/02/20 06:19:52;;;;;;;2.70;0.50;;;;;;;3.24;100.00;96222.31;5019685;28;20461;-76
2022/02/20 06:22:41;;;;;;;3.00;0.83;;;;;;;3.25;100.00;96223.97;5032991;28;20471;-77
2022/02/20 06:25:26;;;;;;;6.37;2.27;;;;;;;3.26;100.00;96220.44;5021938;28;20558;-76
2022/02/20 06:28:02;;;;;;;6.40;1.30;;;;;;;3.28;100.00;96240.16;5039818;28;21047;-77
2022/02/20 06:30:30;;;;;;;4.47;1.07;;;;;;;3.31;100.00;96241.69;4999617;28;20563;-77
2022/02/20 06:32:56;;;;;;;5.07;0.90;;;;;;;3.33;100.00;96249.41;5018551;28;20462;-77
2022/02/20 06:35:21;;;;;;;2.23;0.80;;;;;;;3.34;100.00;96244.06;5020492;28;20485;-77
2022/02/20 06:37:47;;;;;;;3.43;0.50;;;;;;;3.36;100.00;96237.00;5020320;28;20029;-77
2022/02/20 06:40:14;;;;;;;2.70;0.50;;;;;;;3.36;100.00;96247.41;5026846;28;20087;-79
2022/02/20 06:42:40;;;;;;;1.57;0.40;;;;;;;3.36;100.00;96246.56;5036436;28;20459;-77
2022/02/20 06:45:13;;;;;;;1.60;0.60;;;;;;;3.43;100.00;96246.00;5019794;28;20088;-77
2022/02/20 06:47:57;;;;;;;4.57;1.70;;;;;;;3.40;100.00;96242.78;5032989;28;20453;-76
2022/02/20 06:50:33;;;;;;;2.60;0.77;;;;;;;3.40;100.00;96253.19;5041030;28;20529;-78
2022/02/20 06:53:08;;;;;;;2.63;0.83;;;;;;;3.42;100.00;96253.88;5022671;28;20041;-77
2022/02/20 06:56:05;;;;;;;3.43;1.03;;;;;;;3.38;100.00;96255.06;5038677;28;20570;-76
2022/02/20 06:58:31;;;;;;;2.40;0.40;;;;;;;3.38;100.00;96257.66;5037779;28;20100;-77
2022/02/20 07:00:57;;;;;;;1.60;0.60;;;;;;;3.40;100.00;96253.19;5065733;28;20029;-76
2022/02/20 07:03:22;;;;;;;2.80;0.60;;;;;;;3.46;100.00;96255.34;5021112;28;20104;-77
2022/02/20 07:05:48;;;;;;;2.07;0.70;;;;;;;3.48;100.00;96253.44;5015843;28;20079;-78
2022/02/20 07:08:14;;;;;;;3.50;0.43;;;;;;;3.52;100.00;96252.25;5032856;28;20041;-78
2022/02/20 07:10:39;;;;;;;3.23;0.53;;;;;;;3.55;100.00;96265.03;5029200;28;20033;-78
2022/02/20 07:13:09;;;;;;;3.53;0.70;;;;;;;3.57;100.00;96262.31;5038385;28;20025;-77
2022/02/20 07:15:38;;;;;;;3.00;0.57;;;;;;;3.61;100.00;96263.75;5032793;28;20090;-76
2022/02/20 07:18:07;;;;;;;1.57;0.30;;;;;;;3.68;100.00;96268.38;5026803;28;21181;-78
2022/02/20 07:20:34;;;;;;;1.60;0.53;;;;;;;3.70;100.00;96274.28;5017322;28;20545;-78
2022/02/20 07:23:02;;;;;;;3.83;0.43;;;;;;;3.81;100.00;96273.47;5018451;28;20472;-77
2022/02/20 07:25:27;;;;;;;2.50;0.57;;;;;;;3.84;100.00;96290.63;5046301;28;20390;-77
2022/02/20 07:27:54;;;;;;;2.20;0.60;;;;;;;3.85;100.00;96297.47;5049678;28;20044;-78
2022/02/20 07:30:22;;;;;;;2.87;0.67;;;;;;;3.79;100.00;96285.78;5026755;28;20040;-79
2022/02/20 07:32:49;;;;;;;2.50;0.53;;;;;;;3.75;100.00;96285.16;5012829;28;20088;-76
2022/02/20 07:35:15;;;;;;;2.57;0.73;;;;;;;3.68;100.00;96283.16;5023237;28;20026;-79
2022/02/20 07:37:41;;;;;;;3.63;0.50;;;;;;;3.70;100.00;96278.66;5042758;28;20123;-77
2022/02/20 07:40:11;;;;;;;0.67;0.30;;;;;;;3.74;100.00;96290.50;5035230;28;20368;-78
2022/02/20 07:42:37;;;;;;;1.50;0.43;;;;;;;3.73;100.00;96291.44;5021149;28;20044;-76
2022/02/20 07:45:05;;;;;;;3.80;0.43;;;;;;;3.73;100.00;96288.84;5030036;28;20038;-78
2022/02/20 07:47:32;;;;;;;0.60;0.33;;;;;;;3.79;100.00;96296.19;5038022;28;20509;-76
2022/02/20 07:49:58;;;;;;;5.10;0.63;;;;;;;3.71;100.00;96298.53;5010748;28;20037;-79
2022/02/20 07:52:25;;;;;;;1.80;0.60;;;;;;;3.73;100.00;96296.66;5027370;28;20401;-82
2022/02/20 07:54:51;;;;;;;2.80;0.60;;;;;;;3.63;100.00;96293.06;5018174;28;20041;-78
2022/02/20 07:57:17;;;;;;;2.40;0.80;;;;;;;3.63;100.00;96287.88;5059382;28;20037;-78
2022/02/20 07:59:43;;;;;;;3.97;0.80;;;;;;;3.64;100.00;96287.75;5026001;28;20097;-77
2022/02/20 08:02:09;;;;;;;3.20;0.80;;;;;;;3.68;100.00;96272.75;5011855;28;20049;-76
2022/02/20 08:04:35;;;;;;;2.83;0.97;;;;;;;3.74;100.00;96275.69;5011743;28;20034;-76
2022/02/20 08:07:04;;;;;;;13.93;5.27;;;;;;;3.77;100.00;96274.66;5021675;28;20124;-76
2022/02/20 08:09:29;;;;;;;4.13;1.27;;;;;;;3.86;100.00;96278.34;5032100;28;20101;-77
2022/02/20 08:11:55;;;;;;;2.47;0.60;;;;;;;3.92;100.00;96272.66;5044101;28;20068;-76
2022/02/20 08:14:21;;;;;;;3.27;0.70;;;;;;;3.98;100.00;96267.78;5036004;28;20037;-77
2022/02/20 08:16:46;;;;;;;3.17;1.20;;;;;;;4.11;100.00;96264.25;5016116;28;20026;-77
2022/02/20 08:19:12;;;;;;;2.63;0.67;;;;;;;4.11;100.00;96272.91;5025938;28;20042;-79
2022/02/20 08:21:38;;;;;;;5.70;1.43;;;;;;;4.29;100.00;96260.22;5040159;28;20033;-77
2022/02/20 08:24:04;;;;;;;6.33;1.97;;;;;;;4.36;100.00;96253.59;5029119;28;20029;-78
2022/02/20 08:26:30;;;;;;;1.90;0.60;;;;;;;4.42;100.00;96247.06;5011626;28;20484;-78
2022/02/20 08:28:56;;;;;;;3.87;1.30;;;;;;;4.66;100.00;96249.50;5017070;28;20415;-76
2022/02/20 08:31:21;;;;;;;4.27;0.90;;;;;;;4.55;100.00;96246.94;5034243;28;20037;-77
2022/02/20 08:33:48;;;;;;;12.47;4.90;;;;;;;4.62;100.00;96258.50;5028540;28;20055;-76
2022/02/20 08:36:14;;;;;;;23.50;9.73;;;;;;;4.69;100.00;96246.66;5024843;28;20479;-77
2022/02/20 08:38:40;;;;;;;8.93;3.70;;;;;;;4.64;100.00;96249.63;5025563;28;20033;-77
2022/02/20 08:41:05;;;;;;;2.43;1.20;;;;;;;4.71;100.00;96253.41;5035645;28;20029;-77
2022/02/20 08:43:31;;;;;;;7.53;1.80;;;;;;;4.70;100.00;96256.97;5025888;28;20129;-78
2022/02/20 08:45:57;;;;;;;48.50;26.93;;;;;;;4.77;100.00;96256.47;5041317;28;20025;-77
2022/02/20 08:48:23;;;;;;;3.00;1.10;;;;;;;4.83;100.00;96254.22;5041512;28;20029;-77
2022/02/20 08:50:48;;;;;;;5.17;2.33;;;;;;;4.90;100.00;96262.38;5048086;28;20502;-78
2022/02/20 08:53:14;;;;;;;5.70;1.90;;;;;;;4.89;100.00;96264.13;5035746;28;20483;-77
2022/02/20 08:55:40;;;;;;;5.07;2.77;;;;;;;4.97;100.00;96279.97;5024799;28;20048;-78
2022/02/20 08:58:07;;;;;;;4.80;1.03;;;;;;;4.93;100.00;96281.19;5020157;28;20033;-78
2022/02/20 09:00:32;;;;;;;19.77;14.40;;;;;;;4.90;100.00;96273.63;5046550;28;20025;-79
2022/02/20 09:02:59;;;;;;;4.80;1.03;;;;;;;4.95;100.00;96271.44;5021555;28;20025;-79
2022/02/20 09:05:25;;;;;;;2.90;0.80;;;;;;;5.15;100.00;96266.41;5026676;28;20025;-79
2022/02/20 09:07:50;;;;;;;3.97;1.07;;;;;;;5.18;99.36;96268.75;5037113;28;20538;-78
2022/02/20 09:10:16;;;;;;;1.97;0.80;;;;;;;5.25;98.56;96259.47;5041024;28;20036;-78
2022/02/20 09:12:42;;;;;;;6.13;0.70;;;;;;;5.36;98.33;96251.59;5033498;28;20124;-78
2022/02/20 09:15:10;;;;;;;1.60;0.67;;;;;;;5.47;97.71;96250.75;5042996;28;20040;-77
2022/02/20 09:17:36;;;;;;;5.07;1.00;;;;;;;5.54;97.05;96246.66;5012922;28;20026;-77
2022/02/20 09:20:03;;;;;;;3.27;1.13;;;;;;;5.52;96.49;96247.72;5025990;28;20043;-78
2022/02/20 09:22:29;;;;;;;2.97;0.80;;;;;;;5.63;95.99;96255.47;5044614;28;20034;-77
2022/02/20 09:24:55;;;;;;;1.53;0.50;;;;;;;5.81;95.04;96259.16;5026634;28;20579;-78
2022/02/20 09:27:22;;;;;;;3.67;0.93;;;;;;;5.81;94.50;96256.56;5033926;28;20124;-78
2022/02/20 09:29:47;;;;;;;3.20;0.80;;;;;;;5.84;94.49;96264.13;5025749;28;20446;-78
2022/02/20 09:32:13;;;;;;;4.37;1.30;;;;;;;5.79;94.32;96260.25;5026529;28;20035;-78
2022/02/20 09:34:39;;;;;;;4.50;1.97;;;;;;;5.94;93.77;96255.56;5017765;28;20030;-79
2022/02/20 09:37:05;;;;;;;3.73;1.07;;;;;;;5.95;93.63;96244.16;5040303;28;20041;-78
2022/02/20 09:39:32;;;;;;;4.97;1.27;;;;;;;6.03;93.39;96245.16;5041058;28;20044;-79
2022/02/20 09:41:59;;;;;;;3.83;0.80;;;;;;;6.16;93.05;96226.66;5033790;28;20036;-78
2022/02/20 09:44:27;;;;;;;3.07;0.80;;;;;;;6.09;92.52;96228.97;5028069;28;20033;-78
2022/02/20 09:46:54;;;;;;;4.43;1.43;;;;;;;6.43;90.68;96212.97;5039092;28;20021;-78
2022/02/20 09:49:26;;;;;;;2.20;0.70;;;;;;;6.53;89.96;96215.63;5043881;28;20037;-78
2022/02/20 09:51:52;;;;;;;4.53;0.83;;;;;;;6.34;90.01;96221.66;5032945;28;20021;-78
2022/02/20 09:54:18;;;;;;;4.20;1.50;;;;;;;6.51;89.40;96214.94;5022409;28;20050;-78
2022/02/20 09:56:44;;;;;;;8.80;3.83;;;;;;;6.30;88.55;96213.22;5044233;28;20029;-77
2022/02/20 09:59:09;;;;;;;23.87;13.37;;;;;;;6.54;86.72;96201.63;5041989;28;20029;-77
2022/02/20 10:01:35;;;;;;;9.30;4.80;;;;;;;6.77;86.63;96200.41;5028909;28;20037;-79
2022/02/20 10:04:11;;;;;;;3.07;1.00;;;;;;;6.68;86.77;96206.44;5050668;28;20029;-77
2022/02/20 10:06:47;;;;;;;1.10;0.37;;;;;;;6.26;87.20;96204.00;5022781;28;20026;-78
2022/02/20 10:09:20;;;;;;;1.50;0.50;;;;;;;6.19;86.95;96209.91;5029680;28;20029;-76
2022/02/20 10:11:46;;;;;;;1.42;0.50;;;;;;;6.40;86.66;96218.47;5037891;28;20697;-78
2022/02/20 10:14:15;;;;;;;1.97;0.50;;;;;;;6.32;87.55;96220.94;5021159;28;20043;-78
2022/02/20 10:16:40;;;;;;;2.53;1.00;;;;;;;6.29;86.95;96201.13;5033557;28;20044;-77
2022/02/20 10:19:25;;;;;;;2.47;0.60;;;;;;;6.52;87.76;96201.72;5039300;28;20028;-78
2022/02/20 10:22:09;;;;;;;2.33;0.50;;;;;;;6.62;85.90;96201.75;5045909;28;20406;-78
2022/02/20 10:25:08;;;;;;;2.13;0.50;;;;;;;6.68;86.02;96203.00;5041422;28;20064;-79
2022/02/20 10:27:54;;;;;;;2.10;0.60;;;;;;;6.91;84.22;96201.78;5022952;28;20083;-77
2022/02/20 10:30:30;;;;;;;1.77;0.40;;;;;;;6.86;85.00;96203.97;5015064;28;20041;-78
2022/02/20 10:33:16;;;;;;;1.73;0.50;;;;;;;7.48;82.15;96202.69;5039711;28;20036;-78
2022/02/20 10:35:47;;;;;;;1.27;0.37;;;;;;;7.20;82.63;96196.53;5030319;28;20033;-77
2022/02/20 10:38:18;;;;;;;1.97;0.40;;;;;;;7.13;82.40;96192.81;5030862;28;20025;-78
2022/02/20 10:40:47;;;;;;;4.53;1.40;;;;;;;7.05;82.84;96197.94;5029488;28;20033;-77
2022/02/20 10:43:42;;;;;;;2.40;0.30;;;;;;;7.04;83.33;96197.09;5048876;28;20044;-79
2022/02/20 10:46:09;;;;;;;1.77;0.50;;;;;;;7.15;82.50;96214.44;5062927;28;20059;-77
2022/02/20 10:48:42;;;;;;;3.77;0.63;;;;;;;7.24;82.33;96204.91;5076755;28;20112;-78
2022/02/20 10:51:08;;;;;;;2.90;0.90;;;;;;;7.04;82.58;96218.03;5037637;28;20549;-78
2022/02/20 10:53:34;;;;;;;1.77;0.60;;;;;;;7.04;82.44;96215.41;5045387;28;20022;-79
2022/02/20 10:56:00;;;;;;;0.90;0.57;;;;;;;7.19;82.42;96210.56;5013452;28;20084;-77
2022/02/20 10:58:31;;;;;;;3.63;0.93;;;;;;;7.20;83.15;96200.94;5020525;28;20035;-77
2022/02/20 11:00:59;;;;;;;1.20;0.90;;;;;;;7.15;82.62;96198.75;5032417;28;20034;-80
2022/02/20 11:03:27;;;;;;;3.03;1.07;;;;;;;7.22;83.22;96193.78;5046473;28;20064;-79
2022/02/20 11:05:54;;;;;;;2.13;0.70;;;;;;;7.09;84.48;96178.38;5032299;28;20030;-77
2022/02/20 11:08:22;;;;;;;3.47;1.30;;;;;;;7.20;83.18;96175.59;5025400;28;20073;-77
2022/02/20 11:10:49;;;;;;;2.07;0.80;;;;;;;7.26;83.63;96171.59;5023012;28;20025;-79
2022/02/20 11:13:17;;;;;;;3.37;0.60;;;;;;;7.72;82.07;96170.81;5020010;28;20038;-76
2022/02/20 11:15:45;;;;;;;3.13;0.80;;;;;;;7.68;81.74;96166.84;5042411;28;20317;-79
2022/02/20 11:18:16;;;;;;;1.00;0.53;;;;;;;7.57;81.51;96146.06;5023732;28;20042;-76
2022/02/20 11:20:47;;;;;;;2.03;0.50;;;;;;;7.74;82.87;96168.84;5038424;28;20715;-78
2022/02/20 11:23:21;;;;;;;3.07;1.10;;;;;;;7.71;83.68;96179.63;5041176;28;20041;-79
2022/02/20 11:25:50;;;;;;;2.90;0.60;;;;;;;8.04;83.68;96172.19;5015845;28;20034;-78
2022/02/20 11:28:17;;;;;;;2.27;0.93;;;;;;;7.98;81.93;96164.91;5008557;28;20029;-77
2022/02/20 11:30:43;;;;;;;1.77;0.60;;;;;;;7.90;81.59;96146.50;5029217;28;20037;-78
2022/02/20 11:33:10;;;;;;;1.07;0.33;;;;;;;7.78;81.87;96154.53;5023931;28;20026;-77
2022/02/20 11:35:42;;;;;;;0.90;0.20;;;;;;;7.66;83.45;96160.09;5010935;28;20447;-79
2022/02/20 11:38:32;;;;;;;1.33;0.30;;;;;;;7.91;84.38;96145.50;5029309;28;20088;-78
2022/02/20 11:41:03;;;;;;;1.80;0.47;;;;;;;8.27;82.42;96134.16;5028767;28;20037;-78
2022/02/20 11:43:45;;;;;;;1.30;0.30;;;;;;;8.14;80.26;96125.81;5030198;28;20037;-77
2022/02/20 11:46:15;;;;;;;1.63;0.60;;;;;;;8.22;80.18;96120.69;5019771;28;20045;-77
2022/02/20 11:49:02;;;;;;;0.87;0.40;;;;;;;8.34;79.09;96115.22;5026554;28;20045;-78